Flight Track Log - Related Links

Times and Time Zones

All times are in EST time to prevent confusion due to time zone crossing. See the QXE2086 flight status page for this flight to view local times or setup timezone preferences in your user account.

Time Position Orientation Groundspeed Altitude Reporting Facility
EST Latitude Longitude Course Direction KTS MPH feet Rate Location/Type
Sat 10:49:00 PM 47.2551 -121.6936 106° East  Level Estimated
Sat 10:50:00 PM 47.2224 -121.5911 110° East  Level Estimated
Sat 10:51:00 PM 47.1895 -121.4886 110° East  Level Estimated
Sat 10:52:00 PM 47.1953 -121.3757 86° East  Level FlightAware Approximate
Sat 10:53:00 PM 47.1611 -121.2742 102° East  Level Estimated
Sat 10:54:00 PM 47.1269 -121.1728 109° East  Level Estimated
Sat 10:55:00 PM 47.1230 -121.0599 93° East  Level FlightAware Approximate
Sat 10:56:00 PM 47.1190 -120.9469 93° East  Level FlightAware Approximate
Sat 10:57:00 PM 47.1061 -120.8370 109° East  Level FlightAware Approximate
Sat 10:58:00 PM 47.0820 -120.7319 109° East  Level FlightAware Approximate
Sat 10:59:00 PM 47.0577 -120.6266 109° East  Level FlightAware Approximate
Sat 11:00:00 PM 47.0333 -120.5214 109° East  Level FlightAware Approximate
Sat 11:01:00 PM 47.0161 -120.4143 109° East  Level FlightAware Approximate
Sat 11:02:00 PM 46.9910 -120.3095 109° East  Level FlightAware Approximate
Sat 11:03:00 PM 46.9657 -120.2049 109° East  Level FlightAware Approximate
Sat 11:04:00 PM 46.9404 -120.1003 110° East  Level FlightAware Approximate
Sat 11:05:00 PM 46.9149 -119.9958 110° East  Level FlightAware Approximate
Sat 11:06:00 PM 46.8889 -119.8892 110° East  Level FlightAware Approximate
Sat 11:07:00 PM 46.8589 -119.7848 114° Southeast  Level FlightAware Approximate
Sat 11:08:00 PM 46.8279 -119.6812 114° Southeast  Level FlightAware Approximate
Sat 11:09:00 PM 46.7965 -119.5769 114° Southeast  Level FlightAware Approximate
Sat 11:10:00 PM 46.7635 -119.4738 116° Southeast  Level FlightAware Approximate
Sat 11:11:00 PM 46.7291 -119.3717 118° Southeast  Level FlightAware Approximate
Sat 11:12:00 PM 46.6967 -119.2825 118° Southeast  Level FlightAware Approximate
Sat 11:13:00 PM 46.6644 -119.1932 116° Southeast  Level FlightAware Approximate
Sat 11:14:00 PM 46.6342 -119.1023 116° Southeast  Level FlightAware Approximate
Sat 11:15:00 PM 46.6039 -119.0116 116° Southeast  Level FlightAware Approximate
Sat 11:16:00 PM 46.5872 -118.9617 116° Southeast  Level FlightAware Approximate
Sat 11:17:00 PM 46.5734 -118.9100 110° East  Level FlightAware Approximate
Sat 11:18:00 PM 46.5603 -118.8579 110° East  Level FlightAware Approximate
Sat 11:19:00 PM 46.5420 -118.8167 180° South  Level FlightAware Approximate
Sat 11:20:00 PM 46.5213 -118.7775 114° Southeast  Level FlightAware Approximate
Sat 11:21:00 PM 46.5058 -118.7269 114° Southeast  Level FlightAware Approximate
Sat 11:22:00 PM 46.4902 -118.6763 114° Southeast  Level FlightAware Approximate
Sat 11:23:00 PM 46.4746 -118.6257 114° Southeast  Level FlightAware Approximate
Sat 11:24:00 PM 46.4581 -118.5758 117° Southeast  Level FlightAware Approximate
Sat 11:25:00 PM 46.4408 -118.5264 117° Southeast  Level FlightAware Approximate
Sat 11:26:00 PM 46.4234 -118.4771 117° Southeast  Level FlightAware Approximate
Sat 11:27:00 PM 46.4060 -118.4279 117° Southeast  Level FlightAware Approximate
Sat 11:28:00 PM 46.3886 -118.3786 117° Southeast  Level FlightAware Approximate
Sat 11:29:00 PM 46.3712 -118.3295 117° Southeast  Level FlightAware Approximate
Sat 11:30:00 PM 46.3394 -118.2257 113° Southeast  Level FlightAware Approximate
Sat 11:31:00 PM 46.2956 -118.1522 199° South  Level FlightAware Approximate
Sat 11:32:00 PM 46.2699 -118.2356 274° West  Level FlightAware Approximate
Sat 11:33:00 PM 46.2751 -118.3487 274° West  Level FlightAware Approximate
Sat 11:34:00 PM 46.2802 -118.4619 274° West  Level FlightAware Approximate
Sat 11:35:00 PM 46.2470 -118.3602 115° Southeast  Level FlightAware Approximate
Sat 11:36:00 PM 46.2138 -118.2587 115° Southeast  Level FlightAware Approximate
Sat 11:37:00 PM 46.1805 -118.1573 115° Southeast  Level FlightAware Approximate
Sat 11:38:00 PM 46.1267 -118.2401 308° West  Level Estimated
Sat 11:39:00 PM 46.0948 -118.2890 325° Northwest  Level Estimated
Sat 11:40:00 PM 46.0948 -118.2890 151° Southeast  Level Estimated
Sat 11:41:00 PM 46.0948 -118.2890 35° Northeast  Level Estimated
Sat 11:42:00 PM 46.0948 -118.2890 199° South  Level Estimated
Sat 11:43:00 PM 46.0948 -118.2890 199° South  Level Estimated
Sat 11:44:00 PM 46.0948 -118.2890 210° Southwest  Level Estimated
Sat 11:45:00 PM 46.0948 -118.2890 210° Southwest  Level Estimated
Sat 11:46:00 PM 46.0948 -118.2890 210° Southwest  Level Estimated
Sat 11:47:00 PM 46.0948 -118.2890 153° Southeast  Level Estimated
Sat 11:48:00 PM 46.0948 -118.2890 153° Southeast  Level Estimated
Sat 11:49:00 PM 46.0948 -118.2890 153° Southeast  Level Estimated
Sat 11:50:00 PM 46.0948 -118.2890 153° Southeast  Level Estimated
Sat 11:51:00 PM 46.0948 -118.2890 199° South  Level Estimated
Sat 11:52:00 PM 46.1330 -118.3945 298° West  Level Estimated
Sat 11:53:00 PM 46.1712 -118.5001 298° West  Level Estimated
Sat 11:54:00 PM 46.2092 -118.6059 297° West  Level Estimated
Sat 11:55:00 PM 46.2472 -118.7119 297° West  Level Estimated
Sat 11:56:00 PM 46.2850 -118.8179 297° West  Level Estimated
Sat 11:57:00 PM 46.3353 -118.9593 297° West  Level Estimated
Sat 11:58:00 PM 46.3853 -119.1009 297° West  Level Estimated
Sat 11:59:00 PM 46.4352 -119.2428 297° West  Level Estimated
Sun 12:00:00 AM 46.4856 -119.3871 297° West  Level Estimated
Sun 12:01:00 AM 46.5358 -119.5316 297° West  Level Estimated
Sun 12:02:00 AM 46.5859 -119.6764 297° West  Level Estimated
Sun 12:03:00 AM 46.6358 -119.8215 297° West  Level Estimated
Sun 12:04:00 AM 46.6855 -119.9668 297° West  Level Estimated
Sun 12:05:00 AM 46.7350 -120.1124 296° West  Level Estimated
Sun 12:06:00 AM 46.7843 -120.2583 296° West  Level Estimated
Sun 12:07:00 AM 46.8335 -120.4047 296° West  Level Estimated
Sun 12:08:00 AM 46.8826 -120.5514 296° West  Level Estimated
Sun 12:09:00 AM 46.9314 -120.6983 296° West  Level Estimated
Sun 12:10:00 AM 46.9814 -120.8496 296° West  Level Estimated
Sun 12:11:00 AM 47.0313 -121.0012 296° West  Level Estimated
Sun 12:12:00 AM 47.0809 -121.1531 296° West  Level Estimated
Sun 12:13:00 AM 47.1303 -121.3052 296° West  Level Estimated
Sun 12:14:00 AM 47.1213 -121.1356 94° East  Level FlightAware Approximate
Sun 12:15:00 AM 47.1661 -121.2926 109° East  Level Estimated
Sun 12:16:00 AM 47.1306 -121.1305 108° East  Level FlightAware Approximate
Sun 12:17:00 AM 47.1742 -121.2882 115° Southeast  Level Estimated
Sun 12:18:00 AM 47.1324 -121.1295 111° Southeast  Level FlightAware Approximate
Sun 12:19:00 AM 47.1757 -121.2874 111° Southeast  Level Estimated
Sun 12:20:00 AM 47.1340 -121.1286 111° Southeast  Level FlightAware Approximate
Sun 12:21:00 AM 47.0921 -120.9700 111° Southeast  Level FlightAware Approximate
Sun 12:22:00 AM 47.0500 -120.8117 111° Southeast  Level FlightAware Approximate
Sun 12:23:00 AM 47.0076 -120.6536 111° Southeast  Level FlightAware Approximate
Sun 12:24:00 AM 46.9651 -120.4958 112° Southeast  Level FlightAware Approximate
Sun 12:25:00 AM 46.9223 -120.3383 112° Southeast  Level FlightAware Approximate
Sun 12:26:00 AM 46.9659 -120.4953 113° Southeast  Level Estimated
Sun 12:27:00 AM 46.9225 -120.3381 112° Southeast  Level FlightAware Approximate
Sun 12:28:00 AM 46.8789 -120.1812 112° Southeast  Level FlightAware Approximate
Sun 12:29:00 AM 46.8351 -120.0245 112° Southeast  Level FlightAware Approximate
Sun 12:30:00 AM 46.8791 -120.1811 112° Southeast  Level Estimated
Sun 12:31:00 AM 46.8357 -120.0242 112° Southeast  Level FlightAware Approximate
Sun 12:32:00 AM 46.7921 -119.8675 112° Southeast  Level FlightAware Approximate
Sun 12:33:00 AM 46.8362 -120.0239 308° West  Level Estimated
Sun 12:34:00 AM 46.8019 -119.8623 107° East  Level FlightAware Approximate
Sun 12:35:00 AM 46.7673 -119.7010 107° East  Level FlightAware Approximate
Sun 12:36:00 AM 46.8099 -119.8555 116° Southeast  Level Estimated
Sun 12:37:00 AM 46.7702 -119.6993 110° East  Level FlightAware Approximate
Sun 12:38:00 AM 46.7304 -119.5434 110° East  Level FlightAware Approximate
Sun 12:39:00 AM 46.6903 -119.3877 111° Southeast  Level FlightAware Approximate
Sun 12:40:00 AM 46.7324 -119.5408 292° West  Level Estimated
Sun 12:41:00 AM 46.7744 -119.6941 292° West  Level Estimated
Sun 12:42:00 AM 46.8162 -119.8477 292° West  Level Estimated
Sun 12:43:00 AM 46.8577 -120.0015 292° West  Level Estimated
Sun 12:44:00 AM 46.8991 -120.1556 291° West  Level Estimated
Sun 12:45:00 AM 46.9402 -120.3099 291° West  Level Estimated
Sun 12:46:00 AM 46.9812 -120.4644 291° West  Level Estimated
Sun 12:47:00 AM 47.0189 -120.6077 291° West  Level Estimated
Sun 12:48:00 AM 47.0564 -120.7512 291° West  Level Estimated
Sun 12:49:00 AM 47.0938 -120.8948 291° West  Level Estimated
Sun 12:50:00 AM 47.1310 -121.0387 291° West  Level Estimated
Sun 12:51:00 AM 47.1680 -121.1828 291° West  Level Estimated
Sun 12:52:00 AM 47.2048 -121.3270 291° West  Level Estimated
Sun 12:53:00 AM 47.2414 -121.4715 291° West  Level Estimated
Sun 12:54:00 AM 47.2779 -121.6162 290° West  Level Estimated
Sun 12:55:00 AM 47.3141 -121.7610 290° West  Level Estimated
Sun 12:56:00 AM 47.3502 -121.9061 290° West  Level Estimated
Sun 12:57:00 AM 47.3861 -122.0514 290° West  Level Estimated
Sun 12:58:00 AM 47.4218 -122.1968 290° West  Level Estimated
Sun 12:59:00 AM 47.4499 -122.3118 290° West  Level Estimated
Sun 01:00:00 AM 47.4499 -122.3118 126° Southeast  Level Estimated
Sun 01:01:00 AM 47.4499 -122.3118 126° Southeast  Level Estimated
Sun 01:02:00 AM 47.4499 -122.3118 126° Southeast  Level Estimated
Sun 01:03:00 AM 47.4499 -122.3118 126° Southeast  Level Estimated
Sun 01:04:00 AM 47.4499 -122.3118 126° Southeast  Level Estimated
Sun 01:05:00 AM 47.4499 -122.3118 126° Southeast  Level Estimated
Sun 01:06:00 AM 47.4499 -122.3118 126° Southeast  Level Estimated

Login

Don't have an account? Register now (free) for customized features, flight alerts, and more!